createdAt,value
2023-05-21T00:01:25.983Z,16.89
2023-05-21T00:03:52.937Z,16.86
2023-05-21T00:06:21.269Z,16.86
2023-05-21T00:08:47.909Z,16.81
2023-05-21T00:11:14.693Z,16.77
2023-05-21T00:13:41.604Z,16.76
2023-05-21T00:16:08.247Z,16.75
2023-05-21T00:18:34.896Z,16.75
2023-05-21T00:21:01.808Z,16.74
2023-05-21T00:23:28.561Z,16.72
2023-05-21T00:25:55.208Z,16.71
2023-05-21T00:28:21.909Z,16.69
2023-05-21T00:30:48.585Z,16.70
2023-05-21T00:33:15.916Z,16.69
2023-05-21T00:35:42.580Z,16.69
2023-05-21T00:38:09.475Z,16.67
2023-05-21T00:40:36.463Z,16.62
2023-05-21T00:43:03.511Z,16.56
2023-05-21T00:45:30.367Z,16.53
2023-05-21T00:47:57.184Z,16.50
2023-05-21T00:50:24.593Z,16.47
2023-05-21T00:52:51.816Z,16.47
2023-05-21T00:55:18.495Z,16.47
2023-05-21T00:57:46.273Z,16.47
2023-05-21T01:00:14.945Z,16.47
2023-05-21T01:02:42.132Z,16.46
2023-05-21T01:05:10.794Z,16.45
2023-05-21T01:07:41.739Z,16.44
2023-05-21T01:10:10.553Z,16.42
2023-05-21T01:12:39.769Z,16.42
2023-05-21T01:15:07.108Z,16.42
2023-05-21T01:17:34.525Z,16.41
2023-05-21T01:20:02.110Z,16.39
2023-05-21T01:22:32.749Z,16.37
2023-05-21T01:25:02.975Z,16.34
2023-05-21T01:27:29.732Z,16.32
2023-05-21T01:29:57.147Z,16.30
2023-05-21T01:32:45.847Z,16.28
2023-05-21T01:35:17.535Z,16.25
2023-05-21T01:37:52.011Z,16.23
2023-05-21T01:40:26.689Z,16.17
2023-05-21T01:42:53.815Z,16.15
2023-05-21T01:45:24.306Z,16.11
2023-05-21T01:47:53.685Z,16.09
2023-05-21T01:50:21.686Z,16.06
2023-05-21T01:53:01.155Z,16.04
2023-05-21T01:55:28.295Z,15.93
2023-05-21T01:57:56.004Z,15.82
2023-05-21T02:00:24.840Z,15.83
2023-05-21T02:02:52.160Z,15.73
2023-05-21T02:05:18.936Z,15.70
2023-05-21T02:07:46.347Z,15.67
2023-05-21T02:10:13.431Z,15.63
2023-05-21T02:12:39.952Z,15.62
2023-05-21T02:15:07.103Z,15.54
2023-05-21T02:17:38.700Z,15.53
2023-05-21T02:20:12.192Z,15.55
2023-05-21T02:22:40.110Z,15.50
2023-05-21T02:25:09.364Z,15.44
2023-05-21T02:27:37.988Z,15.38
2023-05-21T02:30:07.097Z,15.35
2023-05-21T02:32:34.884Z,15.30
2023-05-21T02:35:03.686Z,15.28
2023-05-21T02:37:33.875Z,15.28
2023-05-21T02:40:01.916Z,15.27
2023-05-21T02:42:28.431Z,15.22
2023-05-21T02:44:55.229Z,15.22
2023-05-21T02:47:23.864Z,15.21
2023-05-21T02:49:51.914Z,15.17
2023-05-21T02:52:19.731Z,15.17
2023-05-21T02:54:47.351Z,15.15
2023-05-21T02:57:14.016Z,15.10
2023-05-21T02:59:40.930Z,15.08
2023-05-21T03:02:07.583Z,15.05
2023-05-21T03:04:39.328Z,15.01
2023-05-21T03:07:06.646Z,15.02
2023-05-21T03:09:33.276Z,15.04
2023-05-21T03:11:59.868Z,15.05
2023-05-21T03:14:26.550Z,15.05
2023-05-21T03:16:53.450Z,14.99
2023-05-21T03:19:21.045Z,14.96
2023-05-21T03:21:49.160Z,14.93
2023-05-21T03:24:15.783Z,14.91
2023-05-21T03:26:42.326Z,14.90
2023-05-21T03:29:09.013Z,14.87
2023-05-21T03:31:36.039Z,14.87
2023-05-21T03:34:02.667Z,14.90
2023-05-21T03:36:29.279Z,14.90
2023-05-21T03:38:55.782Z,14.90
2023-05-21T03:41:22.386Z,14.88
2023-05-21T03:43:49.055Z,14.85
2023-05-21T03:46:15.884Z,14.83
2023-05-21T03:48:42.515Z,14.78
2023-05-21T03:51:09.757Z,14.81
2023-05-21T03:53:36.693Z,14.79
2023-05-21T03:56:03.600Z,14.80
2023-05-21T03:58:30.896Z,14.80
2023-05-21T04:00:57.722Z,14.81
2023-05-21T04:03:24.361Z,14.80
2023-05-21T04:05:51.098Z,14.80
2023-05-21T04:08:17.867Z,14.78
2023-05-21T04:10:44.495Z,14.77
2023-05-21T04:13:11.345Z,14.76
2023-05-21T04:15:38.853Z,14.80
2023-05-21T04:18:07.329Z,14.82
2023-05-21T04:20:34.085Z,14.81
2023-05-21T04:23:01.208Z,14.77
2023-05-21T04:25:27.887Z,14.75
2023-05-21T04:27:54.905Z,14.73
2023-05-21T04:30:22.102Z,14.70
2023-05-21T04:32:48.888Z,14.70
2023-05-21T04:35:15.721Z,14.70
2023-05-21T04:37:42.499Z,14.63
2023-05-21T04:40:09.911Z,14.64
2023-05-21T04:42:36.603Z,14.64
2023-05-21T04:45:03.335Z,14.65
2023-05-21T04:47:35.850Z,14.65
2023-05-21T04:50:02.853Z,14.65
2023-05-21T04:52:29.493Z,14.64
2023-05-21T04:54:56.179Z,14.64
2023-05-21T04:57:24.696Z,14.64
2023-05-21T04:59:51.358Z,14.66
2023-05-21T05:02:18.028Z,14.70
2023-05-21T05:04:44.840Z,14.71
2023-05-21T05:07:12.461Z,14.69
2023-05-21T05:09:39.072Z,14.71
2023-05-21T05:12:06.066Z,14.71
2023-05-21T05:14:32.795Z,14.75
2023-05-21T05:17:00.836Z,14.80
2023-05-21T05:19:27.662Z,14.81
2023-05-21T05:21:54.411Z,14.77
2023-05-21T05:24:21.033Z,14.80
2023-05-21T05:26:47.754Z,14.84
2023-05-21T05:29:14.443Z,14.86
2023-05-21T05:31:41.505Z,14.88
2023-05-21T05:34:08.065Z,14.93
2023-05-21T05:36:34.725Z,14.90
2023-05-21T05:39:01.392Z,14.85
2023-05-21T05:41:28.183Z,14.87
2023-05-21T05:43:55.037Z,14.89
2023-05-21T05:46:21.782Z,14.85
2023-05-21T05:48:48.520Z,14.88
2023-05-21T05:51:17.175Z,14.90
2023-05-21T05:53:43.830Z,14.87
2023-05-21T05:56:10.617Z,14.87
2023-05-21T05:58:37.489Z,14.93
2023-05-21T06:01:04.115Z,14.98
2023-05-21T06:03:30.957Z,14.96
2023-05-21T06:05:57.727Z,15.00
2023-05-21T06:08:24.645Z,15.06
2023-05-21T06:10:51.510Z,15.10
2023-05-21T06:13:18.186Z,15.12
2023-05-21T06:15:44.777Z,15.17
2023-05-21T06:18:11.604Z,15.25
2023-05-21T06:20:38.466Z,15.26
2023-05-21T06:23:06.545Z,15.28
2023-05-21T06:25:33.183Z,15.35
2023-05-21T06:27:59.962Z,15.41
2023-05-21T06:30:26.591Z,15.54
2023-05-21T06:32:53.251Z,15.72
2023-05-21T06:35:20.304Z,15.78
2023-05-21T06:37:46.934Z,15.90
2023-05-21T06:40:13.681Z,16.04
2023-05-21T06:42:40.470Z,16.14
2023-05-21T06:45:07.798Z,16.27
2023-05-21T06:47:34.563Z,16.43
2023-05-21T06:50:01.175Z,16.60
2023-05-21T06:52:27.846Z,16.69
2023-05-21T06:54:54.470Z,16.79
2023-05-21T06:57:21.017Z,16.85
2023-05-21T06:59:47.767Z,16.84
2023-05-21T07:02:14.488Z,16.96
2023-05-21T07:04:41.257Z,17.01
2023-05-21T07:07:07.886Z,17.10
2023-05-21T07:09:34.565Z,17.21
2023-05-21T07:12:02.242Z,17.29
2023-05-21T07:14:28.881Z,17.34
2023-05-21T07:16:55.471Z,17.45
2023-05-21T07:19:22.203Z,17.52
2023-05-21T07:21:49.442Z,17.62
2023-05-21T07:24:16.080Z,17.79
2023-05-21T07:26:42.717Z,17.71
2023-05-21T07:29:09.455Z,17.80
2023-05-21T07:31:36.245Z,17.78
2023-05-21T07:34:02.928Z,17.77
2023-05-21T07:36:30.050Z,17.75
2023-05-21T07:38:56.728Z,17.60
2023-05-21T07:41:23.411Z,17.69
2023-05-21T07:43:49.995Z,17.84
2023-05-21T07:46:16.654Z,17.82
2023-05-21T07:48:43.878Z,17.76
2023-05-21T07:51:11.596Z,17.80
2023-05-21T07:53:38.248Z,17.83
2023-05-21T07:56:05.162Z,18.00
2023-05-21T07:58:32.825Z,18.16
2023-05-21T08:00:59.438Z,18.10
2023-05-21T08:03:26.745Z,18.03
2023-05-21T08:05:53.614Z,18.25
2023-05-21T08:08:20.327Z,18.36
2023-05-21T08:10:47.917Z,18.46
2023-05-21T08:13:16.398Z,18.58
2023-05-21T08:15:43.219Z,18.67
2023-05-21T08:18:10.009Z,18.66
2023-05-21T08:20:37.077Z,18.59
2023-05-21T08:23:04.193Z,18.66
2023-05-21T08:25:30.993Z,18.69
2023-05-21T08:27:57.838Z,18.71
2023-05-21T08:30:24.578Z,18.59
2023-05-21T08:32:51.382Z,18.73
2023-05-21T08:35:18.205Z,18.76
2023-05-21T08:37:44.995Z,18.83
2023-05-21T08:40:12.363Z,18.88
2023-05-21T08:42:45.419Z,18.93
2023-05-21T08:45:14.389Z,19.01
2023-05-21T08:47:44.504Z,19.14
2023-05-21T08:50:16.493Z,19.07
2023-05-21T08:52:43.109Z,19.16
2023-05-21T08:55:10.467Z,18.93
2023-05-21T08:57:37.370Z,18.99
2023-05-21T09:00:07.169Z,19.09
2023-05-21T09:02:35.337Z,19.25
2023-05-21T09:05:03.483Z,19.31
2023-05-21T09:07:31.937Z,19.40
2023-05-21T09:10:05.733Z,19.63
2023-05-21T09:12:32.885Z,19.67
2023-05-21T09:15:01.340Z,19.75
2023-05-21T09:17:28.182Z,19.86
2023-05-21T09:20:15.289Z,20.09
2023-05-21T09:22:42.965Z,20.11
2023-05-21T09:25:11.642Z,20.15
2023-05-21T09:27:38.922Z,20.19
2023-05-21T09:30:11.501Z,20.22
2023-05-21T09:32:39.317Z,20.24
2023-05-21T09:35:10.730Z,20.34
2023-05-21T09:37:45.372Z,20.42
2023-05-21T09:40:16.459Z,20.50
2023-05-21T09:42:47.987Z,20.62
2023-05-21T09:45:26.212Z,20.67
2023-05-21T09:47:54.897Z,20.66
2023-05-21T09:50:29.501Z,20.70
2023-05-21T09:52:56.412Z,20.72
2023-05-21T09:55:24.895Z,20.66
2023-05-21T09:57:53.060Z,20.72
2023-05-21T10:00:24.457Z,20.75
2023-05-21T10:02:55.802Z,20.95
2023-05-21T10:05:26.657Z,21.06
2023-05-21T10:07:57.870Z,21.21
2023-05-21T10:10:24.527Z,21.16
2023-05-21T10:12:59.116Z,21.00
2023-05-21T10:15:30.317Z,21.13
2023-05-21T10:17:57.649Z,20.99
2023-05-21T10:20:24.819Z,21.05
2023-05-21T10:22:52.172Z,20.97
2023-05-21T10:25:19.926Z,21.06
2023-05-21T10:27:48.524Z,21.14
2023-05-21T10:30:15.832Z,21.33
2023-05-21T10:32:43.029Z,21.44
2023-05-21T10:35:10.845Z,21.42
2023-05-21T10:37:37.850Z,21.50
2023-05-21T10:40:04.992Z,21.58
2023-05-21T10:42:36.210Z,21.53
2023-05-21T10:45:27.607Z,21.53
2023-05-21T10:48:57.951Z,21.56
2023-05-21T10:51:49.470Z,21.55
2023-05-21T10:54:48.883Z,21.70
2023-05-21T10:57:42.499Z,21.73
2023-05-21T11:00:12.762Z,21.57
2023-05-21T11:02:39.950Z,21.62
2023-05-21T11:05:07.195Z,21.87
2023-05-21T11:07:59.588Z,22.02
2023-05-21T11:10:40.997Z,22.06
2023-05-21T11:13:15.586Z,21.92
2023-05-21T11:16:01.383Z,21.87
2023-05-21T11:18:38.937Z,21.95
2023-05-21T11:21:06.481Z,22.01
2023-05-21T11:23:55.438Z,22.03
2023-05-21T11:26:26.368Z,22.08
2023-05-21T11:29:08.897Z,21.97
2023-05-21T11:31:39.373Z,22.07
2023-05-21T11:34:28.417Z,22.09
2023-05-21T11:37:21.818Z,22.11
2023-05-21T11:39:49.927Z,22.13
2023-05-21T11:42:38.991Z,22.06
2023-05-21T11:45:06.127Z,22.07
2023-05-21T11:47:33.110Z,22.23
2023-05-21T11:50:01.964Z,22.28
2023-05-21T11:52:30.241Z,22.49
2023-05-21T11:55:00.096Z,22.58
2023-05-21T11:57:33.328Z,22.68
2023-05-21T12:00:02.644Z,22.55
2023-05-21T12:02:33.192Z,22.48
2023-05-21T12:05:00.898Z,22.46
2023-05-21T12:07:29.882Z,22.48
2023-05-21T12:09:57.538Z,22.63
2023-05-21T12:12:33.081Z,22.92
2023-05-21T12:15:06.996Z,22.99
2023-05-21T12:17:34.251Z,22.97
2023-05-21T12:20:02.234Z,22.98
2023-05-21T12:22:29.901Z,23.00
2023-05-21T12:24:58.468Z,23.05
2023-05-21T12:27:25.226Z,22.89
2023-05-21T12:29:53.207Z,22.84
2023-05-21T12:32:21.652Z,22.73
2023-05-21T12:34:52.739Z,22.85
2023-05-21T12:37:25.435Z,22.95
2023-05-21T12:39:53.914Z,22.69
2023-05-21T12:42:27.989Z,22.73
2023-05-21T12:44:54.974Z,22.70
2023-05-21T12:47:28.179Z,22.92
2023-05-21T12:49:58.122Z,22.96
2023-05-21T12:52:25.628Z,23.02
2023-05-21T12:54:56.343Z,23.22
2023-05-21T12:57:30.010Z,23.27
2023-05-21T13:00:01.271Z,23.07
2023-05-21T13:02:29.921Z,23.09
2023-05-21T13:05:03.955Z,23.06
2023-05-21T13:07:32.434Z,23.05
2023-05-21T13:10:00.792Z,23.18
2023-05-21T13:12:29.836Z,23.13
2023-05-21T13:14:58.183Z,23.00
2023-05-21T13:17:26.266Z,23.16
2023-05-21T13:20:12.678Z,23.24
2023-05-21T13:22:46.692Z,23.19
2023-05-21T13:25:19.874Z,23.31
2023-05-21T13:27:50.261Z,23.09
2023-05-21T13:30:17.664Z,23.19
2023-05-21T13:32:45.010Z,23.28
2023-05-21T13:35:12.571Z,23.33
2023-05-21T13:37:40.891Z,23.40
2023-05-21T13:40:11.254Z,23.36
2023-05-21T13:42:38.910Z,23.40
2023-05-21T13:45:10.448Z,23.51
2023-05-21T13:47:39.922Z,23.60
2023-05-21T13:50:08.370Z,23.69
2023-05-21T13:52:35.237Z,23.68
2023-05-21T13:55:02.197Z,23.71
2023-05-21T13:57:31.022Z,23.64
2023-05-21T13:59:59.222Z,23.67
2023-05-21T14:02:26.482Z,23.74
2023-05-21T14:04:53.988Z,23.80
2023-05-21T14:07:21.578Z,23.72
2023-05-21T14:09:48.481Z,23.73
2023-05-21T14:12:15.219Z,23.51
2023-05-21T14:14:42.309Z,23.69
2023-05-21T14:17:09.004Z,23.80
2023-05-21T14:19:35.825Z,23.93
2023-05-21T14:22:02.476Z,23.93
2023-05-21T14:24:29.146Z,23.77
2023-05-21T14:26:56.091Z,23.70
2023-05-21T14:29:23.302Z,23.61
2023-05-21T14:31:50.058Z,23.61
2023-05-21T14:34:16.739Z,23.66
2023-05-21T14:36:43.552Z,23.71
2023-05-21T14:39:10.270Z,23.83
2023-05-21T14:41:39.590Z,23.94
2023-05-21T14:44:06.182Z,23.89
2023-05-21T14:46:33.113Z,23.93
2023-05-21T14:49:00.594Z,23.99
2023-05-21T14:51:27.266Z,23.97
2023-05-21T14:53:54.040Z,23.90
2023-05-21T14:56:21.903Z,23.84
2023-05-21T14:58:48.709Z,23.97
2023-05-21T15:01:15.502Z,24.01
2023-05-21T15:03:42.226Z,23.92
2023-05-21T15:06:09.434Z,23.93
2023-05-21T15:08:36.284Z,23.73
2023-05-21T15:11:02.895Z,23.96
2023-05-21T15:13:29.506Z,23.70
2023-05-21T15:15:56.286Z,23.61
2023-05-21T15:18:24.718Z,23.53
2023-05-21T15:20:51.581Z,23.70
2023-05-21T15:23:18.465Z,23.76
2023-05-21T15:25:45.865Z,23.59
2023-05-21T15:28:13.084Z,23.61
2023-05-21T15:30:40.476Z,23.38
2023-05-21T15:33:07.276Z,23.28
2023-05-21T15:35:35.956Z,23.22
2023-05-21T15:38:03.154Z,23.15
2023-05-21T15:40:29.722Z,23.27
2023-05-21T15:42:56.359Z,23.14
2023-05-21T15:45:22.970Z,23.08
2023-05-21T15:47:49.661Z,23.17
2023-05-21T15:50:16.325Z,23.22
2023-05-21T15:52:43.184Z,23.18
2023-05-21T15:55:10.035Z,23.17
2023-05-21T15:57:36.874Z,23.08
2023-05-21T16:00:04.975Z,23.04
2023-05-21T16:02:31.548Z,23.10
2023-05-21T16:04:58.160Z,23.11
2023-05-21T16:07:24.831Z,23.07
2023-05-21T16:09:51.570Z,22.94
2023-05-21T16:12:18.408Z,22.94
2023-05-21T16:14:45.057Z,22.96
2023-05-21T16:17:11.925Z,22.93
2023-05-21T16:19:39.044Z,22.94
2023-05-21T16:22:05.961Z,23.05
2023-05-21T16:24:32.907Z,23.07
2023-05-21T16:26:59.468Z,22.99
2023-05-21T16:29:26.056Z,23.08
2023-05-21T16:31:52.633Z,23.05
2023-05-21T16:34:19.329Z,22.84
2023-05-21T16:36:47.566Z,22.76
2023-05-21T16:39:14.477Z,22.79
2023-05-21T16:41:41.225Z,22.95
2023-05-21T16:44:07.842Z,22.89
2023-05-21T16:46:36.318Z,22.62
2023-05-21T16:49:02.858Z,22.63
2023-05-21T16:51:29.422Z,22.60
2023-05-21T16:53:56.031Z,22.63
2023-05-21T16:56:23.290Z,22.69
2023-05-21T16:58:50.025Z,22.70
2023-05-21T17:01:16.701Z,22.62
2023-05-21T17:03:43.660Z,22.74
2023-05-21T17:06:10.486Z,22.57
2023-05-21T17:08:37.130Z,22.66
2023-05-21T17:11:03.829Z,22.70
2023-05-21T17:13:30.428Z,22.52
2023-05-21T17:15:57.092Z,22.61
2023-05-21T17:18:23.720Z,22.52
2023-05-21T17:20:50.440Z,22.59
2023-05-21T17:23:17.563Z,22.51
2023-05-21T17:25:44.418Z,22.47
2023-05-21T17:28:11.433Z,22.34
2023-05-21T17:30:38.708Z,22.35
2023-05-21T17:33:06.501Z,22.24
2023-05-21T17:35:33.665Z,22.31
2023-05-21T17:38:00.350Z,22.21
2023-05-21T17:40:27.026Z,22.21
2023-05-21T17:42:53.636Z,22.18
2023-05-21T17:45:20.446Z,22.22
2023-05-21T17:47:47.581Z,22.19
2023-05-21T17:50:14.361Z,21.93
2023-05-21T17:52:41.022Z,22.03
2023-05-21T17:55:08.175Z,22.06
2023-05-21T17:57:36.086Z,22.09
2023-05-21T18:00:05.093Z,21.98
2023-05-21T18:02:32.077Z,22.05
2023-05-21T18:04:58.673Z,22.03
2023-05-21T18:07:25.670Z,21.98
2023-05-21T18:09:52.497Z,21.78
2023-05-21T18:12:19.161Z,21.71
2023-05-21T18:14:45.887Z,21.72
2023-05-21T18:17:12.676Z,21.69
2023-05-21T18:19:39.360Z,21.67
2023-05-21T18:22:06.423Z,21.62
2023-05-21T18:24:33.217Z,21.66
2023-05-21T18:27:00.184Z,21.55
2023-05-21T18:29:26.940Z,21.55
2023-05-21T18:31:53.905Z,21.48
2023-05-21T18:34:20.998Z,21.47
2023-05-21T18:36:48.279Z,21.45
2023-05-21T18:39:15.025Z,21.51
2023-05-21T18:41:41.825Z,21.38
2023-05-21T18:44:08.673Z,21.26
2023-05-21T18:46:35.408Z,21.31
2023-05-21T18:49:02.124Z,21.33
2023-05-21T18:51:28.722Z,21.28
2023-05-21T18:53:55.470Z,21.20
2023-05-21T18:56:22.225Z,21.16
2023-05-21T18:58:48.908Z,21.19
2023-05-21T19:01:16.403Z,21.20
2023-05-21T19:03:43.345Z,21.17
2023-05-21T19:06:10.002Z,21.07
2023-05-21T19:08:36.585Z,21.08
2023-05-21T19:11:03.300Z,21.02
2023-05-21T19:13:30.088Z,21.00
2023-05-21T19:15:58.416Z,20.80
2023-05-21T19:18:30.382Z,20.67
2023-05-21T19:20:57.710Z,20.58
2023-05-21T19:23:24.948Z,20.51
2023-05-21T19:25:51.905Z,20.47
2023-05-21T19:28:21.419Z,20.38
2023-05-21T19:30:48.208Z,20.27
2023-05-21T19:33:14.940Z,20.27
2023-05-21T19:35:43.192Z,20.18
2023-05-21T19:38:10.675Z,20.18
2023-05-21T19:40:37.525Z,20.26
2023-05-21T19:43:04.438Z,20.19
2023-05-21T19:45:31.369Z,20.05
2023-05-21T19:47:59.557Z,20.01
2023-05-21T19:50:28.517Z,19.88
2023-05-21T19:52:57.236Z,19.93
2023-05-21T19:55:24.751Z,19.90
2023-05-21T19:57:51.795Z,19.77
2023-05-21T20:00:19.021Z,19.71
2023-05-21T20:02:46.185Z,19.65
2023-05-21T20:05:13.091Z,19.59
2023-05-21T20:07:40.023Z,19.50
2023-05-21T20:10:07.466Z,19.37
2023-05-21T20:12:34.274Z,19.33
2023-05-21T20:15:01.039Z,19.24
2023-05-21T20:17:28.951Z,19.07
2023-05-21T20:19:57.264Z,18.97
2023-05-21T20:22:23.947Z,18.89
2023-05-21T20:24:50.742Z,18.82
2023-05-21T20:27:19.641Z,18.74
2023-05-21T20:29:46.870Z,18.71
2023-05-21T20:32:13.521Z,18.64
2023-05-21T20:34:54.412Z,18.53
2023-05-21T20:37:29.137Z,18.32
2023-05-21T20:39:58.531Z,18.25
2023-05-21T20:42:28.535Z,18.16
2023-05-21T20:44:55.570Z,18.06
2023-05-21T20:47:23.437Z,18.00
2023-05-21T20:49:53.744Z,17.96
2023-05-21T20:52:20.676Z,17.93
2023-05-21T20:54:48.921Z,17.89
2023-05-21T20:57:16.313Z,17.80
2023-05-21T20:59:43.312Z,17.75
2023-05-21T21:02:12.268Z,17.70
2023-05-21T21:04:40.011Z,17.61
2023-05-21T21:07:08.201Z,17.58
2023-05-21T21:09:35.128Z,17.56
2023-05-21T21:12:11.396Z,17.53
2023-05-21T21:14:48.028Z,17.50
2023-05-21T21:17:14.722Z,17.43
2023-05-21T21:19:41.659Z,17.41
2023-05-21T21:22:08.525Z,17.37
2023-05-21T21:24:35.026Z,17.34
2023-05-21T21:27:01.870Z,17.33
2023-05-21T21:29:28.678Z,17.32
2023-05-21T21:31:55.503Z,17.32
2023-05-21T21:34:23.456Z,17.32
2023-05-21T21:36:50.664Z,17.30
2023-05-21T21:39:18.979Z,17.26
2023-05-21T21:41:45.844Z,17.24
2023-05-21T21:44:12.403Z,17.22
2023-05-21T21:46:39.215Z,17.19
2023-05-21T21:49:05.801Z,17.21
2023-05-21T21:51:32.441Z,17.16
2023-05-21T21:53:58.978Z,17.11
2023-05-21T21:56:26.440Z,17.13
2023-05-21T21:58:53.171Z,17.13
2023-05-21T22:01:19.987Z,17.09
2023-05-21T22:03:46.895Z,17.05
2023-05-21T22:06:13.591Z,17.01
2023-05-21T22:08:40.119Z,16.99
2023-05-21T22:11:07.041Z,16.94
2023-05-21T22:13:34.438Z,16.92
2023-05-21T22:16:02.150Z,16.82
2023-05-21T22:18:40.156Z,16.79
2023-05-21T22:21:09.513Z,16.80
2023-05-21T22:23:37.224Z,16.79
2023-05-21T22:26:03.942Z,16.77
2023-05-21T22:28:30.533Z,16.75
2023-05-21T22:30:57.313Z,16.72
2023-05-21T22:33:24.672Z,16.68
2023-05-21T22:35:51.304Z,16.67
2023-05-21T22:38:18.041Z,16.65
2023-05-21T22:40:44.817Z,16.62
2023-05-21T22:43:11.439Z,16.58
2023-05-21T22:45:38.558Z,16.55
2023-05-21T22:48:08.477Z,16.52
2023-05-21T22:50:35.922Z,16.49
2023-05-21T22:53:02.925Z,16.51
2023-05-21T22:55:29.741Z,16.48
2023-05-21T22:57:56.303Z,16.45
2023-05-21T23:00:23.919Z,16.47
2023-05-21T23:02:53.857Z,16.47
2023-05-21T23:05:21.224Z,16.46
2023-05-21T23:07:47.916Z,16.46
2023-05-21T23:10:14.555Z,16.47
2023-05-21T23:12:41.382Z,16.47
2023-05-21T23:15:10.011Z,16.51
2023-05-21T23:17:37.751Z,16.61
2023-05-21T23:20:06.058Z,16.67
2023-05-21T23:22:32.794Z,16.74
2023-05-21T23:24:59.628Z,16.78
2023-05-21T23:27:26.311Z,16.80
2023-05-21T23:29:52.988Z,16.84
2023-05-21T23:32:19.774Z,16.85
2023-05-21T23:34:47.165Z,16.84
2023-05-21T23:37:13.926Z,16.85
2023-05-21T23:39:40.479Z,16.76
2023-05-21T23:42:07.498Z,16.67
2023-05-21T23:44:34.122Z,16.62
2023-05-21T23:47:00.846Z,16.60
2023-05-21T23:49:27.494Z,16.58
2023-05-21T23:51:54.285Z,16.53
2023-05-21T23:54:20.839Z,16.45
2023-05-21T23:56:47.549Z,16.35
2023-05-21T23:59:15.665Z,16.26
